Time;durP1;ratioP1;P1;durP2;ratioP2;P2;SDS_P1;SDS_P2;PMS_P1;PMS_P2;Temp;Humidity;BMP_temperature;BMP_pressure;BME280_temperature;BME280_humidity;BME280_pressure;Samples;Min_cycle;Max_cycle;Signal;HPM_P1;HPM_P2
2021/08/14 00:00:01;;;;;;;10.10;9.10;;;17.90;99.90;;;;;;4956648;28;20446;-93
2021/08/14 00:02:28;;;;;;;11.77;9.33;;;;;;;;;;4956648;29;20944;-92
2021/08/14 00:04:55;;;;;;;10.70;9.60;;;;;;;;;;4957042;29;20943;-93
2021/08/14 00:07:22;;;;;;;13.93;9.80;;;15.50;99.90;;;;;;4957025;29;20431;-93
2021/08/14 00:09:50;;;;;;;13.33;10.83;;;;;;;;;;4952104;29;20487;-93
2021/08/14 00:12:17;;;;;;;11.83;10.40;;;;;;;;;;4956900;29;20451;-94
2021/08/14 00:14:44;;;;;;;15.93;9.77;;;;;;;;;;4957397;29;20462;-93
2021/08/14 00:17:12;;;;;;;9.40;8.50;;;;;;;;;;4957349;29;20455;-94
2021/08/14 00:19:39;;;;;;;8.47;7.53;;;;;;;;;;4955147;29;20466;-92
2021/08/14 00:22:06;;;;;;;12.40;8.80;;;;;;;;;;4956914;29;20938;-93
2021/08/14 00:24:34;;;;;;;9.77;8.87;;;;;;;;;;4954518;29;20470;-92
2021/08/14 00:27:01;;;;;;;9.53;8.50;;;;;;;;;;4971694;28;21015;-93
2021/08/14 00:29:28;;;;;;;10.60;8.70;;;;;;;;;;4976174;28;20496;-94
2021/08/14 00:31:55;;;;;;;8.57;7.77;;;;;;;;;;4970785;28;20466;-93
2021/08/14 00:34:23;;;;;;;9.30;8.17;;;;;;;;;;4974034;28;20455;-93
2021/08/14 00:36:51;;;;;;;8.60;7.70;;;;;;;;;;4972098;28;20776;-92
2021/08/14 00:39:18;;;;;;;11.50;8.37;;;;;;;;;;4972291;28;20813;-92
2021/08/14 00:41:45;;;;;;;11.40;8.17;;;;;;;;;;4972762;28;20434;-93
2021/08/14 00:44:12;;;;;;;10.13;8.10;;;;;;;;;;4975967;28;20458;-93
2021/08/14 00:46:39;;;;;;;8.87;7.97;;;;;;;;;;4975728;28;20434;-94
2021/08/14 00:49:06;;;;;;;10.93;8.23;;;;;;;;;;4975743;28;20490;-93
2021/08/14 00:51:35;;;;;;;8.77;7.90;;;;;;;;;;4973741;28;20466;-94
2021/08/14 00:54:02;;;;;;;9.80;7.97;;;;;;;;;;4972406;28;20443;-92
2021/08/14 00:56:29;;;;;;;12.23;9.13;;;;;;;;;;4970090;28;20482;-92
2021/08/14 00:58:56;;;;;;;9.93;7.70;;;17.10;99.90;;;;;;4975607;28;20798;-94
2021/08/14 01:01:24;;;;;;;8.93;8.03;;;;;;;;;;4975788;28;20454;-93
2021/08/14 01:03:51;;;;;;;9.07;8.10;;;;;;;;;;4975711;28;20958;-92
2021/08/14 01:06:19;;;;;;;9.07;8.17;;;;;;;;;;4973726;28;20820;-95
2021/08/14 01:08:48;;;;;;;11.27;8.23;;;;;;;;;;4972841;28;20485;-93
2021/08/14 01:11:16;;;;;;;9.53;8.63;;;;;;;;;;4975870;28;20442;-92
2021/08/14 01:13:43;;;;;;;9.03;8.13;;;;;;;;;;4972883;28;20457;-93
2021/08/14 01:16:10;;;;;;;10.00;9.00;;;;;;;;;;4979460;28;20453;-93
2021/08/14 01:18:40;;;;;;;9.87;8.90;;;;;;;;;;4979091;28;20454;-91
2021/08/14 01:21:07;;;;;;;8.80;7.80;;;;;;;;;;4979310;28;20562;-94
2021/08/14 01:23:34;;;;;;;8.23;7.53;;;;;;;;;;4976867;28;20466;-93
2021/08/14 01:26:04;;;;;;;8.83;7.87;;;16.90;99.90;;;;;;4966605;28;20479;-92
2021/08/14 01:28:33;;;;;;;9.10;8.20;;;16.90;99.90;;;;;;4953449;29;20490;-92
2021/08/14 01:31:01;;;;;;;8.83;8.00;;;16.90;99.90;;;;;;4957985;29;20490;-93
2021/08/14 01:33:31;;;;;;;11.43;8.30;;;16.90;99.90;;;;;;4956851;29;20462;-92
2021/08/14 01:35:58;;;;;;;8.80;7.80;;;;;;;;;;4958142;29;20447;-93
2021/08/14 01:38:25;;;;;;;9.53;7.90;;;;;;;;;;4959519;29;20432;-93
2021/08/14 01:40:52;;;;;;;12.40;8.17;;;;;;;;;;4956523;29;20486;-93
2021/08/14 01:43:20;;;;;;;9.50;7.90;;;;;;;;;;4957765;29;20459;-92
2021/08/14 01:45:49;;;;;;;11.60;8.10;;;17.00;99.90;;;;;;4957912;29;20486;-92
2021/08/14 01:48:16;;;;;;;8.53;7.73;;;;;;;;;;4956554;29;20446;-92
2021/08/14 01:50:44;;;;;;;8.40;7.60;;;;;;;;;;4959805;29;20458;-93
2021/08/14 01:53:11;;;;;;;9.23;8.33;;;;;;;;;;4955031;29;20469;-92
2021/08/14 01:55:38;;;;;;;9.43;8.13;;;;;;;;;;4959476;28;20478;-94
2021/08/14 01:58:05;;;;;;;12.37;8.50;;;;;;;;;;4959436;29;20432;-93
2021/08/14 02:00:32;;;;;;;10.43;7.80;;;;;;;;;;4959176;29;20920;-92
2021/08/14 02:03:01;;;;;;;10.03;8.10;;;;;;;;;;4959455;29;20454;-92
2021/08/14 02:05:28;;;;;;;10.47;7.80;;;;;;;;;;4959541;29;20439;-93
2021/08/14 02:07:55;;;;;;;8.73;7.73;;;;;;;;;;4958613;29;20454;-93
2021/08/14 02:10:22;;;;;;;11.17;8.40;;;;;;;;;;4957156;29;20495;-94
2021/08/14 02:12:49;;;;;;;8.97;8.17;;;;;;;;;;4957231;29;20495;-93
2021/08/14 02:15:16;;;;;;;15.37;7.67;;;;;;;;;;4957419;29;20455;-93
2021/08/14 02:17:44;;;;;;;10.40;7.70;;;;;;;;;;4958960;29;20943;-94
2021/08/14 02:20:13;;;;;;;9.13;8.13;;;;;;;;;;4959233;29;20451;-93
2021/08/14 02:22:40;;;;;;;12.70;7.53;;;;;;;;;;4958640;28;20439;-93
2021/08/14 02:25:08;;;;;;;9.50;7.80;;;17.50;99.90;;;;;;4955338;28;20447;-94
2021/08/14 02:27:35;;;;;;;8.50;7.70;;;;;;;;;;4958962;29;20439;-92
2021/08/14 02:30:02;;;;;;;14.63;7.63;;;;;;;;;;4956743;29;20495;-93
2021/08/14 02:32:29;;;;;;;9.77;8.27;;;;;;;;;;4960067;29;20447;-94
2021/08/14 02:34:56;;;;;;;12.97;7.70;;;;;;;;;;4971688;28;20446;-95
2021/08/14 02:37:25;;;;;;;8.77;7.87;;;;;;;;;;4981821;28;20451;-93
2021/08/14 02:39:52;;;;;;;8.37;7.27;;;;;;;;;;4964472;28;20470;-93
2021/08/14 02:42:19;;;;;;;10.77;7.30;;;;;;;;;;4955871;29;20440;-93
2021/08/14 02:44:46;;;;;;;10.40;8.03;;;;;;;;;;4956881;29;20474;-92
2021/08/14 02:47:13;;;;;;;7.90;7.10;;;;;;;;;;4954649;29;20467;-94
2021/08/14 02:49:40;;;;;;;15.43;8.20;;;;;;;;;;4956318;29;20497;-93
2021/08/14 02:52:08;;;;;;;8.80;7.90;;;;;;;;;;4956726;29;20474;-92
2021/08/14 02:54:36;;;;;;;8.40;7.57;;;;;;;;;;4956593;29;20454;-93
2021/08/14 02:57:03;;;;;;;8.87;7.60;;;;;;;;;;4956749;29;20497;-92
2021/08/14 02:59:31;;;;;;;11.00;8.23;;;;;;;;;;4954436;29;20536;-94
2021/08/14 03:01:58;;;;;;;8.63;7.70;;;;;;;;;;4958496;29;20444;-94
2021/08/14 03:04:25;;;;;;;8.23;7.43;;;;;;;;;;4954515;29;20462;-92
2021/08/14 03:06:56;;;;;;;11.00;7.87;;;16.80;99.90;;;;;;4958303;29;20432;-92
2021/08/14 03:09:23;;;;;;;9.47;7.40;;;;;;;;;;4954456;29;20482;-94
2021/08/14 03:11:51;;;;;;;8.80;7.47;;;16.70;99.90;;;;;;4957997;29;20439;-92
2021/08/14 03:14:18;;;;;;;10.13;7.87;;;;;;;;;;4955016;29;20794;-92
2021/08/14 03:16:45;;;;;;;8.67;7.70;;;;;;;;;;4958262;29;20440;-93
2021/08/14 03:19:12;;;;;;;8.93;8.00;;;;;;;;;;4957998;29;20450;-94
2021/08/14 03:21:39;;;;;;;9.17;7.57;;;;;;;;;;4956855;29;20911;-93
2021/08/14 03:24:07;;;;;;;9.67;8.67;;;;;;;;;;4954365;29;20567;-93
2021/08/14 03:26:34;;;;;;;12.60;8.07;;;;;;;;;;4954691;28;20530;-94
2021/08/14 03:29:02;;;;;;;9.43;8.40;;;;;;;;;;4958210;29;20462;-92
2021/08/14 03:31:30;;;;;;;11.37;8.00;;;;;;;;;;4955747;29;20463;-92
2021/08/14 03:33:57;;;;;;;9.60;7.93;;;;;;;;;;4958242;29;20438;-92
2021/08/14 03:36:25;;;;;;;8.53;7.63;;;;;;;;;;4955820;29;20455;-94
2021/08/14 03:38:52;;;;;;;10.60;8.70;;;;;;;;;;4956968;29;20811;-93
2021/08/14 03:41:19;;;;;;;8.77;7.90;;;;;;;;;;4958259;29;20458;-92
2021/08/14 03:43:46;;;;;;;9.90;7.63;;;;;;;;;;4957113;29;20450;-93
2021/08/14 03:46:15;;;;;;;9.73;8.73;;;;;;;;;;4956437;29;20443;-93
2021/08/14 03:48:42;;;;;;;9.90;8.53;;;;;;;;;;4955967;29;20462;-94
2021/08/14 03:51:09;;;;;;;10.53;7.60;;;;;;;;;;4955563;29;21009;-91
2021/08/14 03:53:36;;;;;;;8.27;7.57;;;;;;;;;;4957235;29;20908;-92
2021/08/14 03:56:03;;;;;;;9.60;7.23;;;;;;;;;;4957554;28;20470;-93
2021/08/14 03:58:33;;;;;;;8.10;7.40;;;16.10;99.90;;;;;;4954249;29;20475;-94
2021/08/14 04:01:00;;;;;;;11.17;9.20;;;;;;;;;;4898309;29;20458;-92
2021/08/14 04:03:29;;;;;;;8.70;7.83;;;;;;;;;;4894673;29;20465;-92
2021/08/14 04:05:56;;;;;;;12.27;8.30;;;;;;;;;;4898325;29;20491;-93
2021/08/14 04:08:24;;;;;;;9.30;8.40;;;;;;;;;;4894926;29;20472;-92
2021/08/14 04:10:51;;;;;;;10.83;7.10;;;;;;;;;;4895668;29;20489;-93
2021/08/14 04:13:18;;;;;;;12.30;8.33;;;;;;;;;;4898398;29;20461;-93
2021/08/14 04:15:45;;;;;;;7.90;7.10;;;;;;;;;;4898037;29;20461;-92
2021/08/14 04:18:12;;;;;;;10.20;8.43;;;;;;;;;;4905092;29;20476;-93
2021/08/14 04:20:41;;;;;;;9.87;8.87;;;;;;;;;;4954483;29;20447;-92
2021/08/14 04:23:08;;;;;;;11.37;8.17;;;;;;;;;;4954211;29;20490;-92
2021/08/14 04:25:35;;;;;;;9.87;8.90;;;;;;;;;;4956591;28;20478;-93
2021/08/14 04:28:03;;;;;;;9.17;8.20;;;;;;;;;;4956666;29;20462;-92
2021/08/14 04:30:30;;;;;;;8.67;7.30;;;;;;;;;;4956280;29;20501;-92
2021/08/14 04:32:57;;;;;;;9.47;8.30;;;;;;;;;;4956933;29;20478;-92
2021/08/14 04:35:24;;;;;;;8.60;7.70;;;;;;;;;;4953727;29;20447;-92
2021/08/14 04:37:53;;;;;;;9.23;7.73;;;;;;;;;;4955698;29;20462;-91
2021/08/14 04:40:20;;;;;;;10.07;8.60;;;;;;;;;;4954747;29;20459;-92
2021/08/14 04:42:47;;;;;;;8.43;7.60;;;;;;;;;;4954642;29;20436;-92
2021/08/14 04:45:14;;;;;;;11.50;8.70;;;16.00;99.90;;;;;;4956442;29;20427;-92
2021/08/14 04:47:42;;;;;;;8.90;8.03;;;;;;;;;;4956157;28;20443;-93
2021/08/14 04:50:10;;;;;;;8.87;8.03;;;15.80;99.90;;;;;;4956581;29;20839;-92
2021/08/14 04:52:37;;;;;;;9.03;7.77;;;;;;;;;;4956084;29;20451;-92
2021/08/14 04:55:09;;;;;;;10.70;9.20;;;;;;;;;;4952461;28;20464;-92
2021/08/14 04:57:36;;;;;;;8.60;7.80;;;;;;;;;;4956284;29;20449;-92
2021/08/14 05:00:06;;;;;;;9.53;8.43;;;16.30;99.90;;;;;;4953184;29;20443;-93
2021/08/14 05:02:33;;;;;;;9.27;8.37;;;;;;;;;;4954660;29;20458;-92
2021/08/14 05:05:00;;;;;;;10.20;8.40;;;;;;;;;;4955972;29;20819;-94
2021/08/14 05:07:27;;;;;;;8.90;8.03;;;;;;;;;;4952397;29;20466;-92
2021/08/14 05:09:54;;;;;;;8.70;7.80;;;;;;;;;;4952519;29;20506;-93
2021/08/14 05:12:23;;;;;;;9.77;8.23;;;;;;;;;;4956139;29;20810;-93
2021/08/14 05:14:50;;;;;;;8.60;7.80;;;;;;;;;;4956429;29;20459;-93
2021/08/14 05:17:17;;;;;;;9.60;8.57;;;;;;;;;;4955442;29;20474;-91
2021/08/14 05:19:44;;;;;;;11.57;9.23;;;;;;;;;;4958735;29;20444;-93
2021/08/14 05:22:11;;;;;;;9.60;8.60;;;;;;;;;;4973332;28;20443;-93
2021/08/14 05:24:38;;;;;;;12.57;8.90;;;;;;;;;;4978813;28;20458;-93
2021/08/14 05:27:06;;;;;;;10.37;9.27;;;;;;;;;;4956347;28;20892;-93
2021/08/14 05:29:35;;;;;;;10.73;9.67;;;;;;;;;;4955336;29;20919;-93
2021/08/14 05:32:02;;;;;;;9.83;7.77;;;;;;;;;;4955579;29;20943;-92
2021/08/14 05:34:29;;;;;;;13.73;8.97;;;;;;;;;;4955530;29;20440;-93
2021/08/14 05:36:56;;;;;;;9.17;8.27;;;;;;;;;;4951926;29;20467;-93
2021/08/14 05:39:24;;;;;;;12.70;8.27;;;;;;;;;;4954206;29;20463;-92
2021/08/14 05:41:52;;;;;;;11.13;7.73;;;;;;;;;;4955321;29;20917;-94
2021/08/14 05:44:19;;;;;;;8.03;7.00;;;;;;;;;;4953221;29;20514;-94
2021/08/14 05:46:47;;;;;;;8.93;7.87;;;20.20;99.90;;;;;;4952769;29;20451;-93
2021/08/14 05:49:14;;;;;;;8.80;7.60;;;;;;;;;;4955362;29;20454;-93
2021/08/14 05:51:42;;;;;;;9.37;7.17;;;;;;;;;;4955044;29;20498;-93
2021/08/14 05:54:09;;;;;;;8.50;7.20;;;;;;;;;;4954097;28;20471;-94
2021/08/14 05:56:36;;;;;;;11.57;7.97;;;;;;;;;;4955049;29;20447;-93
2021/08/14 05:59:03;;;;;;;11.53;8.00;;;;;;;;;;4953116;28;20436;-93
2021/08/14 06:01:31;;;;;;;8.70;7.80;;;;;;;;;;4956013;29;20985;-94
2021/08/14 06:03:59;;;;;;;7.90;7.07;;;23.20;99.90;;;;;;4956241;29;20434;-93
2021/08/14 06:06:26;;;;;;;8.83;7.30;;;;;;;;;;4956775;29;20439;-94
2021/08/14 06:08:53;;;;;;;8.50;7.10;;;;;;;;;;4956449;29;20447;-93
2021/08/14 06:11:20;;;;;;;10.00;7.67;;;;;;;;;;4958037;29;20490;-95
2021/08/14 06:13:47;;;;;;;7.70;6.90;;;;;;;;;;4957980;29;20455;-94
2021/08/14 06:16:15;;;;;;;8.20;7.30;;;;;;;;;;4956635;29;20443;-94
2021/08/14 06:18:42;;;;;;;7.93;7.23;;;;;;;;;;4957856;29;20486;-94
2021/08/14 06:21:12;;;;;;;8.33;7.63;;;24.80;99.90;;;;;;4955428;29;20446;-95
2021/08/14 06:23:39;;;;;;;8.10;7.30;;;;;;;;;;4957177;29;20448;-94
2021/08/14 06:26:06;;;;;;;8.23;7.50;;;;;;;;;;4916814;28;1100460;-93
2021/08/14 06:28:33;;;;;;;8.07;7.33;;;;;;;;;;4954147;29;20565;-96
2021/08/14 06:31:00;;;;;;;9.10;8.30;;;;;;;;;;4959558;29;21006;-95
2021/08/14 06:33:27;;;;;;;8.20;7.40;;;;;;;;;;4958673;29;20970;-94
2021/08/14 06:35:54;;;;;;;8.23;7.37;;;;;;;;;;4958884;29;20439;-94
2021/08/14 06:38:23;;;;;;;7.20;6.50;;;26.00;99.90;;;;;;4956527;29;20459;-94
2021/08/14 06:40:50;;;;;;;8.87;7.13;;;;;;;;;;4956354;29;20443;-95
2021/08/14 06:43:17;;;;;;;8.20;7.50;;;;;;;;;;4959825;29;20820;-94
2021/08/14 06:45:44;;;;;;;8.10;6.67;;;;;;;;;;4959496;29;20463;-94
2021/08/14 06:48:11;;;;;;;8.03;7.33;;;;;;;;;;4960507;29;20462;-95
2021/08/14 06:50:38;;;;;;;7.93;7.13;;;;;;;;;;4960510;29;20483;-93
2021/08/14 06:53:05;;;;;;;7.60;7.00;;;;;;;;;;4958198;28;20474;-94
2021/08/14 06:55:34;;;;;;;7.80;7.00;;;;;;;;;;4959913;29;20485;-94
2021/08/14 06:58:01;;;;;;;8.00;7.17;;;;;;;;;;4958880;29;20455;-93
2021/08/14 07:00:28;;;;;;;8.80;8.00;;;;;;;;;;4961378;29;20939;-94
2021/08/14 07:02:56;;;;;;;8.00;7.40;;;;;;;;;;4961788;29;20466;-95
2021/08/14 07:05:23;;;;;;;8.13;7.33;;;;;;;;;;4961591;29;20455;-94
2021/08/14 07:07:50;;;;;;;7.00;6.40;;;;;;;;;;4959881;29;20455;-94
2021/08/14 07:10:17;;;;;;;9.17;8.20;;;;;;;;;;4959290;28;20478;-94
2021/08/14 07:12:46;;;;;;;7.67;6.97;;;26.80;99.90;;;;;;4958571;29;20951;-94
2021/08/14 07:15:14;;;;;;;11.00;7.90;;;26.90;99.90;;;;;;4959459;29;20455;-94
2021/08/14 07:17:41;;;;;;;7.67;6.73;;;;;;;;;;4958171;29;20919;-94
2021/08/14 07:20:09;;;;;;;7.50;6.90;;;26.50;99.90;;;;;;4958347;29;20459;-95
2021/08/14 07:22:36;;;;;;;7.70;7.10;;;;;;;;;;4956993;29;20463;-94
2021/08/14 07:25:03;;;;;;;8.00;7.30;;;;;;;;;;4960138;28;20451;-94
2021/08/14 07:27:31;;;;;;;8.87;7.30;;;;;;;;;;4960041;29;20784;-94
2021/08/14 07:30:03;;;;;;;7.90;7.20;;;;;;;;;;4964617;29;20447;-95
2021/08/14 07:32:30;;;;;;;7.60;7.00;;;;;;;;;;4962973;29;20466;-94
2021/08/14 07:34:57;;;;;;;8.37;7.20;;;;;;;;;;4960527;29;20458;-95
2021/08/14 07:37:24;;;;;;;22.33;12.33;;;;;;;;;;4961125;29;20447;-93
2021/08/14 07:39:51;;;;;;;11.10;7.73;;;;;;;;;;4961061;29;20443;-94
2021/08/14 07:42:18;;;;;;;7.40;6.77;;;;;;;;;;4958241;29;20439;-94
2021/08/14 07:44:45;;;;;;;7.97;7.27;;;;;;;;;;4961018;29;20439;-96
2021/08/14 07:47:14;;;;;;;7.80;7.00;;;27.80;99.90;;;;;;4959027;29;20825;-94
2021/08/14 07:49:41;;;;;;;7.83;7.03;;;;;;;;;;4962740;29;20462;-93
2021/08/14 07:52:08;;;;;;;8.67;7.67;;;;;;;;;;4963289;29;20495;-94
2021/08/14 07:54:37;;;;;;;7.93;7.23;;;;;;;;;;4963644;28;20471;-94
2021/08/14 07:57:11;;;;;;;9.70;8.63;;;;;;;;;;4964593;29;20508;-95
2021/08/14 07:59:38;;;;;;;7.63;6.93;;;;;;;;;;4963831;29;20943;-94
2021/08/14 08:02:05;;;;;;;8.63;7.93;;;;;;;;;;4960996;29;20459;-94
2021/08/14 08:04:33;;;;;;;7.80;7.10;;;26.80;99.90;;;;;;4958196;29;20466;-94
2021/08/14 08:07:00;;;;;;;8.77;7.40;;;;;;;;;;4969156;29;20804;-95
2021/08/14 08:09:28;;;;;;;8.33;7.63;;;;;;;;;;4957052;29;20450;-93
2021/08/14 08:11:55;;;;;;;7.53;6.57;;;;;;;;;;4958033;29;20505;-95
2021/08/14 08:14:22;;;;;;;7.60;6.87;;;;;;;;;;4958213;29;20443;-95
2021/08/14 08:16:51;;;;;;;7.10;6.40;;;;;;;;;;4959924;29;20447;-93
2021/08/14 08:19:18;;;;;;;7.23;6.70;;;;;;;;;;4960196;29;20514;-94
2021/08/14 08:21:47;;;;;;;7.40;6.70;;;;;;;;;;4957353;28;20463;-93
2021/08/14 08:24:14;;;;;;;6.80;6.20;;;;;;;;;;4961098;29;20458;-94
2021/08/14 08:26:41;;;;;;;5.70;5.20;;;;;;;;;;4961601;28;20475;-94
2021/08/14 08:29:08;;;;;;;8.17;5.90;;;;;;;;;;4961700;29;20548;-95
2021/08/14 08:31:35;;;;;;;6.60;6.00;;;;;;;;;;4959100;29;20497;-95
2021/08/14 08:34:02;;;;;;;6.90;6.30;;;;;;;;;;4958555;29;20580;-94
2021/08/14 08:36:29;;;;;;;5.93;5.40;;;;;;;;;;4957430;29;20942;-93
2021/08/14 08:38:58;;;;;;;6.07;5.60;;;;;;;;;;4956727;29;20458;-94
2021/08/14 08:41:25;;;;;;;8.13;4.70;;;;;;;;;;4951799;29;20479;-93
2021/08/14 08:43:52;;;;;;;7.67;5.73;;;;;;;;;;4956666;29;20446;-94
2021/08/14 08:46:20;;;;;;;6.17;5.57;;;;;;;;;;4956580;29;20779;-92
2021/08/14 08:48:51;;;;;;;6.70;5.53;;;29.10;97.00;;;;;;4956489;29;20443;-93
2021/08/14 08:51:21;;;;;;;5.50;5.10;;;28.80;96.50;;;;;;4916370;29;21088;-93
2021/08/14 08:53:48;;;;;;;6.40;5.90;;;;;;;;;;4913006;29;20476;-94
2021/08/14 08:56:17;;;;;;;8.83;7.17;;;;;;;;;;4917027;29;20453;-94
2021/08/14 08:58:44;;;;;;;7.40;6.73;;;;;;;;;;4912917;29;20456;-93
2021/08/14 09:01:11;;;;;;;6.03;5.53;;;;;;;;;;4915436;29;20937;-94
2021/08/14 09:03:38;;;;;;;7.07;6.37;;;;;;;;;;4916594;29;20453;-94
2021/08/14 09:06:05;;;;;;;6.03;5.40;;;;;;;;;;4916689;29;20455;-95
2021/08/14 09:08:32;;;;;;;10.07;6.23;;;;;;;;;;4920461;29;20473;-95
2021/08/14 09:11:11;;;;;;;7.30;6.10;;;29.70;95.90;;;;;;4956541;29;20508;-96
2021/08/14 09:13:40;;;;;;;7.00;5.77;;;;;;;;;;4955795;29;21005;-94
2021/08/14 09:16:23;;;;;;;6.50;6.00;;;28.90;98.70;;;;;;4955863;29;20447;-95
2021/08/14 09:18:54;;;;;;;10.70;7.40;;;;;;;;;;4952684;29;20466;-95
2021/08/14 09:21:33;;;;;;;6.30;5.80;;;;;;;;;;4956433;29;20459;-94
2021/08/14 09:24:04;;;;;;;5.97;5.53;;;;;;;;;;4958343;29;20446;-95
2021/08/14 09:26:32;;;;;;;6.93;6.27;;;;;;;;;;4958772;28;20917;-94
2021/08/14 09:29:07;;;;;;;6.87;5.90;;;31.40;96.80;;;;;;4939849;29;20460;-95
2021/08/14 09:31:47;;;;;;;7.30;6.80;;;;;;;;;;4935013;29;20507;-94
2021/08/14 09:34:19;;;;;;;6.10;5.60;;;31.60;92.10;;;;;;4943401;29;20448;-94
2021/08/14 09:36:46;;;;;;;7.63;6.83;;;;;;;;;;4936381;29;20450;-92
2021/08/14 09:39:13;;;;;;;10.23;6.40;;;;;;;;;;4935070;29;20471;-94
2021/08/14 09:41:41;;;;;;;7.07;6.47;;;;;;;;;;4937838;29;20474;-96
2021/08/14 09:44:16;;;;;;;8.70;6.53;;;;;;;;;;4945001;29;20458;-94
2021/08/14 09:46:44;;;;;;;8.07;6.60;;;31.40;93.60;;;;;;4952034;29;20446;-95
2021/08/14 09:49:11;;;;;;;7.23;6.37;;;;;;;;;;4962244;29;20466;-94
2021/08/14 09:51:38;;;;;;;7.27;6.23;;;;;;;;;;4966563;29;20482;-94
2021/08/14 09:54:07;;;;;;;6.93;6.33;;;32.30;90.70;;;;;;4964983;28;20473;-94
2021/08/14 09:56:36;;;;;;;8.13;7.07;;;;;;;;;;4925909;29;20818;-95
2021/08/14 09:59:03;;;;;;;6.93;6.43;;;;;;;;;;4926199;29;20535;-95
2021/08/14 10:01:36;;;;;;;8.23;7.23;;;32.00;91.50;;;;;;4921464;29;20464;-95
2021/08/14 10:04:03;;;;;;;7.87;7.07;;;;;;;;;;4919276;29;20440;-95
2021/08/14 10:06:31;;;;;;;7.40;6.70;;;;;;;;;;4925932;29;20471;-95
2021/08/14 10:08:58;;;;;;;8.33;7.43;;;;;;;;;;4920707;29;20459;-95
2021/08/14 10:11:27;;;;;;;7.70;7.07;;;;;;;;;;4923682;29;20487;-94
2021/08/14 10:13:54;;;;;;;7.50;6.80;;;;;;;;;;4930437;29;20454;-95
2021/08/14 10:16:21;;;;;;;7.80;7.03;;;;;;;;;;4967610;29;20452;-94
2021/08/14 10:18:50;;;;;;;8.40;7.60;;;;;;;;;;4968877;29;20439;-96
2021/08/14 10:21:18;;;;;;;8.07;7.40;;;;;;;;;;4946359;29;21160;-93
2021/08/14 10:23:48;;;;;;;8.03;6.80;;;31.40;90.10;;;;;;4947002;29;20459;-94
2021/08/14 10:26:20;;;;;;;7.70;7.00;;;31.70;91.30;;;;;;4870078;29;20491;-95
2021/08/14 10:28:49;;;;;;;8.10;6.47;;;31.10;91.90;;;;;;4865022;29;20466;-94
2021/08/14 10:31:49;;;;;;;8.80;7.47;;;31.70;91.80;;;;;;4867345;29;20462;-96
2021/08/14 10:34:33;;;;;;;8.20;7.40;;;;;;;;;;4792703;29;20478;-95
2021/08/14 10:37:01;;;;;;;7.60;7.00;;;;;;;;;;4862181;29;20463;-96
2021/08/14 10:39:33;;;;;;;7.87;7.07;;;33.10;90.60;;;;;;4876315;29;20454;-96
2021/08/14 10:42:04;;;;;;;7.93;7.17;;;32.90;89.70;;;;;;4885693;29;20442;-92
2021/08/14 10:44:45;;;;;;;12.93;6.57;;;33.20;90.60;;;;;;4877829;29;20536;-94
2021/08/14 10:47:41;;;;;;;7.07;6.43;;;32.40;90.50;;;;;;4879950;29;21019;-95
2021/08/14 10:50:10;;;;;;;7.63;6.73;;;;;;;;;;4883633;29;21025;-94
2021/08/14 10:52:40;;;;;;;9.80;6.77;;;32.90;90.00;;;;;;4864704;29;20526;-93
2021/08/14 10:55:14;;;;;;;7.40;6.73;;;33.00;87.70;;;;;;4867037;29;20474;-93
2021/08/14 10:57:49;;;;;;;7.03;6.47;;;32.50;88.80;;;;;;4892271;29;20456;-95
2021/08/14 11:00:29;;;;;;;8.23;7.53;;;32.40;90.60;;;;;;4907489;29;20452;-94
2021/08/14 11:03:09;;;;;;;7.97;7.37;;;33.10;88.90;;;;;;4913461;29;20449;-94
2021/08/14 11:05:43;;;;;;;8.80;6.40;;;32.80;88.60;;;;;;4909132;29;20449;-95
2021/08/14 11:08:29;;;;;;;7.23;6.60;;;31.10;92.00;;;;;;4916328;29;20468;-94
2021/08/14 11:10:58;;;;;;;10.10;6.77;;;30.50;91.80;;;;;;4944117;29;20486;-93
2021/08/14 11:14:08;;;;;;;7.90;6.97;;;30.10;94.10;;;;;;4967269;29;20494;-92
2021/08/14 11:17:00;;;;;;;9.73;6.90;;;30.90;92.40;;;;;;4968424;29;20526;-94
2021/08/14 11:19:59;;;;;;;7.67;6.87;;;31.20;92.20;;;;;;4962905;29;20464;-94
2021/08/14 11:22:30;;;;;;;8.03;7.30;;;;;;;;;;4938752;29;20976;-95
2021/08/14 11:24:58;;;;;;;6.90;6.20;;;31.90;90.30;;;;;;4960696;28;20455;-94
2021/08/14 11:27:28;;;;;;;10.07;7.60;;;31.40;91.40;;;;;;4957689;29;20439;-96
2021/08/14 11:29:58;;;;;;;12.60;9.17;;;30.90;92.80;;;;;;4959072;29;20439;-94
2021/08/14 11:32:26;;;;;;;8.80;7.40;;;31.70;94.30;;;;;;4960524;29;20561;-95
2021/08/14 11:34:55;;;;;;;7.83;7.10;;;32.10;92.50;;;;;;4921677;29;20461;-94
2021/08/14 11:37:22;;;;;;;9.30;7.50;;;;;;;;;;4919167;29;20556;-94
2021/08/14 11:39:57;;;;;;;12.70;7.57;;;;;;;;;;4920628;29;20573;-93
2021/08/14 11:42:26;;;;;;;9.93;7.47;;;;;;;;;;4920189;29;20496;-94
2021/08/14 11:44:55;;;;;;;8.40;7.60;;;;;;;;;;4919862;29;20468;-95
2021/08/14 11:47:31;;;;;;;9.90;7.67;;;33.00;92.80;;;;;;4919670;29;20454;-94
2021/08/14 11:51:00;;;;;;;7.93;7.27;;;33.30;89.20;;;;;;4928100;29;20440;-96
2021/08/14 11:56:19;;;;;;;8.07;7.37;;;;;;;;;;4975101;23;20541;-95
2021/08/14 12:01:14;;;;;;;7.00;6.50;;;;;;;;;;5030781;23;20520;-94
2021/08/14 12:03:58;;;;;;;8.57;7.60;;;31.40;94.80;;;;;;5011341;28;20346;-96
2021/08/14 12:06:47;;;;;;;8.67;7.87;;;;;;;;;;5012150;23;20489;-95
2021/08/14 12:15:11;;;;;;;9.30;7.73;;;;;;;;;;4995571;28;20456;-95
2021/08/14 12:17:43;;;;;;;8.50;7.67;;;;;;;;;;4994576;28;20537;-95
2021/08/14 12:20:11;;;;;;;9.07;7.67;;;;;;;;;;4981457;28;20462;-96
2021/08/14 12:22:39;;;;;;;9.20;7.00;;;;;;;;;;4979599;28;20446;-95
2021/08/14 12:25:21;;;;;;;8.40;7.60;;;;;;;;;;4983028;28;20521;-96
2021/08/14 12:27:50;;;;;;;8.23;7.43;;;;;;;;;;4980770;28;20460;-94
2021/08/14 12:30:22;;;;;;;8.33;7.10;;;32.80;92.80;;;;;;4983346;28;20446;-95
2021/08/14 12:32:51;;;;;;;14.33;8.00;;;32.80;92.10;;;;;;4979413;28;20482;-95
2021/08/14 12:35:21;;;;;;;12.83;6.70;;;32.80;92.80;;;;;;4975812;28;20526;-94
2021/08/14 12:37:48;;;;;;;7.90;7.20;;;;;;;;;;4987499;28;20446;-93
2021/08/14 12:40:20;;;;;;;8.00;7.30;;;;;;;;;;4979640;28;20456;-95
2021/08/14 12:42:48;;;;;;;8.70;6.60;;;;;;;;;;4978463;28;20447;-95
2021/08/14 12:45:19;;;;;;;7.27;6.67;;;33.60;87.60;;;;;;4978754;28;20482;-95
2021/08/14 12:48:23;;;;;;;8.20;7.50;;;33.60;87.00;;;;;;4974780;28;20868;-92
2021/08/14 12:50:50;;;;;;;8.60;7.67;;;;;;;;;;4954653;29;20465;-93
2021/08/14 12:53:18;;;;;;;9.60;7.90;;;31.60;90.30;;;;;;4955693;29;20475;-93
2021/08/14 12:55:46;;;;;;;9.70;7.87;;;;;;;;;;4956560;29;20463;-94
2021/08/14 12:58:14;;;;;;;8.20;7.50;;;32.00;91.30;;;;;;4957543;29;20451;-94
2021/08/14 13:00:50;;;;;;;9.90;8.00;;;32.50;91.40;;;;;;4958228;29;20939;-94
2021/08/14 13:03:18;;;;;;;9.23;7.70;;;33.10;91.20;;;;;;4959282;29;20473;-93
2021/08/14 13:05:46;;;;;;;7.63;6.80;;;;;;;;;;4958820;29;20442;-96
2021/08/14 13:08:15;;;;;;;8.60;7.70;;;32.40;91.00;;;;;;4957412;29;20451;-95
2021/08/14 13:10:43;;;;;;;9.77;8.40;;;;;;;;;;4957082;29;20487;-96
2021/08/14 13:13:12;;;;;;;9.17;7.03;;;31.80;92.20;;;;;;4956691;29;20498;-94
2021/08/14 13:15:40;;;;;;;8.77;8.03;;;;;;;;;;4958686;29;21023;-92
2021/08/14 13:18:08;;;;;;;9.03;8.13;;;;;;;;;;4958927;29;20463;-94
2021/08/14 13:20:36;;;;;;;8.03;7.33;;;;;;;;;;4959112;29;20462;-94
2021/08/14 13:23:03;;;;;;;8.70;7.90;;;;;;;;;;4956313;29;20462;-93
2021/08/14 13:25:30;;;;;;;9.37;8.40;;;;;;;;;;4953304;29;20973;-94
2021/08/14 13:27:57;;;;;;;8.90;8.13;;;;;;;;;;4958710;29;20458;-94
2021/08/14 13:30:25;;;;;;;8.80;8.10;;;;;;;;;;4957386;29;20455;-93
2021/08/14 13:32:54;;;;;;;9.53;7.63;;;32.10;91.80;;;;;;4956251;29;20493;-95
2021/08/14 13:35:24;;;;;;;7.83;7.13;;;31.70;91.60;;;;;;4952982;29;20458;-93
2021/08/14 13:37:51;;;;;;;10.70;8.27;;;;;;;;;;4963071;29;20435;-93
2021/08/14 13:40:18;;;;;;;9.23;8.30;;;;;;;;;;4964207;29;20454;-92
2021/08/14 13:42:45;;;;;;;8.83;8.13;;;;;;;;;;4964675;29;20486;-94
2021/08/14 13:45:26;;;;;;;10.13;7.73;;;31.60;92.20;;;;;;4959176;29;20582;-96
2021/08/14 13:47:53;;;;;;;9.23;8.50;;;;;;;;;;4904736;29;20477;-95
2021/08/14 13:50:23;;;;;;;8.80;8.00;;;;;;;;;;4906693;29;20457;-94
2021/08/14 13:52:54;;;;;;;10.70;7.83;;;;;;;;;;4900921;29;20485;-94
2021/08/14 13:55:26;;;;;;;11.13;8.00;;;;;;;;;;4880337;29;20447;-94
2021/08/14 13:57:53;;;;;;;8.23;7.47;;;;;;;;;;4882263;29;20462;-95
2021/08/14 14:00:20;;;;;;;8.80;7.80;;;;;;;;;;4875211;29;20549;-94
2021/08/14 14:02:48;;;;;;;12.70;8.40;;;;;;;;;;4876256;29;20474;-94
2021/08/14 14:05:15;;;;;;;9.10;7.90;;;;;;;;;;4879202;29;20466;-95
2021/08/14 14:07:48;;;;;;;8.50;7.53;;;;;;;;;;4879416;29;20491;-94
2021/08/14 14:10:17;;;;;;;10.43;8.30;;;;;;;;;;4866328;29;20479;-94
2021/08/14 14:12:44;;;;;;;11.50;8.00;;;;;;;;;;4885949;29;20487;-96
2021/08/14 14:18:20;;;;;;;8.77;7.97;;;;;;;;;;5179879;27;20578;-94
2021/08/14 14:20:55;;;;;;;9.23;8.33;;;;;;;;;;5160826;27;20481;-94
2021/08/14 14:23:24;;;;;;;8.60;7.80;;;;;;;;;;5159460;27;20433;-93
2021/08/14 14:25:51;;;;;;;12.27;8.97;;;;;;;;;;5158193;27;20450;-93
2021/08/14 14:28:19;;;;;;;8.77;7.83;;;;;;;;;;5154775;27;20447;-93
2021/08/14 14:30:46;;;;;;;8.67;7.87;;;;;;;;;;5157214;27;20449;-93
2021/08/14 14:33:15;;;;;;;8.67;7.93;;;;;;;;;;5155525;27;20434;-94
2021/08/14 14:35:44;;;;;;;8.77;7.97;;;;;;;;;;5156270;27;20451;-94